createdAt,value
2022-10-09T00:01:02.642Z,4.32
2022-10-09T00:02:04.608Z,3.88
2022-10-09T00:03:07.273Z,3.50
2022-10-09T00:04:09.646Z,3.67
2022-10-09T00:05:11.398Z,3.60
2022-10-09T00:06:16.466Z,4.05
2022-10-09T00:07:18.392Z,3.75
2022-10-09T00:08:20.334Z,3.70
2022-10-09T00:09:21.840Z,4.10
2022-10-09T00:10:23.562Z,3.40
2022-10-09T00:11:28.547Z,3.38
2022-10-09T00:12:30.429Z,3.75
2022-10-09T00:13:32.337Z,3.95
2022-10-09T00:14:34.020Z,4.10
2022-10-09T00:15:43.665Z,3.28
2022-10-09T00:16:45.616Z,3.75
2022-10-09T00:17:47.177Z,3.70
2022-10-09T00:18:51.065Z,3.50
2022-10-09T00:19:54.070Z,3.45
2022-10-09T00:20:57.381Z,3.80
2022-10-09T00:21:59.135Z,4.10
2022-10-09T00:23:00.814Z,3.60
2022-10-09T00:24:05.161Z,3.85
2022-10-09T00:25:07.182Z,3.60
2022-10-09T00:26:08.873Z,3.72
2022-10-09T00:27:10.667Z,3.47
2022-10-09T00:28:12.640Z,4.15
2022-10-09T00:29:14.196Z,4.20
2022-10-09T00:30:16.873Z,3.72
2022-10-09T00:31:19.280Z,3.47
2022-10-09T00:32:22.173Z,3.42
2022-10-09T00:33:24.358Z,3.75
2022-10-09T00:34:25.987Z,3.38
2022-10-09T00:35:28.199Z,3.97
2022-10-09T00:36:30.142Z,3.90
2022-10-09T00:37:31.976Z,4.50
2022-10-09T00:38:35.459Z,3.42
2022-10-09T00:39:37.377Z,4.55
2022-10-09T00:40:39.691Z,3.45
2022-10-09T00:41:42.805Z,3.55
2022-10-09T00:42:45.687Z,3.60
2022-10-09T00:43:47.681Z,3.83
2022-10-09T00:44:57.952Z,4.40
2022-10-09T00:45:59.674Z,4.20
2022-10-09T00:47:02.470Z,3.60
2022-10-09T00:48:07.580Z,3.92
2022-10-09T00:49:26.035Z,3.90
2022-10-09T00:50:37.671Z,3.70
2022-10-09T00:51:41.748Z,3.58
2022-10-09T00:52:44.825Z,4.82
2022-10-09T00:53:46.774Z,4.10
2022-10-09T00:54:48.431Z,3.95
2022-10-09T00:55:51.005Z,3.47
2022-10-09T00:56:54.645Z,4.40
2022-10-09T00:57:59.238Z,3.40
2022-10-09T00:59:03.028Z,4.25
2022-10-09T01:00:09.619Z,4.72
2022-10-09T01:01:11.611Z,4.53
2022-10-09T01:02:13.284Z,3.70
2022-10-09T01:03:15.643Z,3.45
2022-10-09T01:04:17.170Z,2.95
2022-10-09T01:05:19.371Z,3.20
2022-10-09T01:06:43.200Z,4.45
2022-10-09T01:07:59.543Z,3.55
2022-10-09T01:09:07.575Z,3.70
2022-10-09T01:10:33.618Z,3.95
2022-10-09T01:11:46.164Z,3.60
2022-10-09T01:13:08.983Z,4.00
2022-10-09T01:14:24.856Z,4.07
2022-10-09T01:15:49.863Z,4.05
2022-10-09T01:17:01.944Z,3.70
2022-10-09T01:18:09.134Z,4.00
2022-10-09T01:19:41.052Z,3.58
2022-10-09T01:21:17.240Z,4.00
2022-10-09T01:22:46.695Z,3.72
2022-10-09T01:23:51.271Z,3.85
2022-10-09T01:25:06.772Z,4.40
2022-10-09T01:26:32.037Z,3.83
2022-10-09T01:27:35.866Z,4.50
2022-10-09T01:28:41.872Z,4.20
2022-10-09T01:29:49.840Z,3.30
2022-10-09T01:30:51.930Z,4.03
2022-10-09T01:31:55.987Z,3.83
2022-10-09T01:32:59.186Z,4.20
2022-10-09T01:34:01.640Z,5.03
2022-10-09T01:35:05.928Z,3.60
2022-10-09T01:36:08.636Z,3.60
2022-10-09T01:37:13.232Z,4.28
2022-10-09T01:38:16.727Z,4.60
2022-10-09T01:39:21.216Z,3.30
2022-10-09T01:40:25.843Z,3.80
2022-10-09T01:41:28.039Z,3.50
2022-10-09T01:42:31.558Z,4.43
2022-10-09T01:43:33.562Z,4.18
2022-10-09T01:44:35.356Z,3.97
2022-10-09T01:45:44.196Z,3.53
2022-10-09T01:46:47.031Z,3.05
2022-10-09T01:47:49.006Z,4.07
2022-10-09T01:49:01.209Z,4.63
2022-10-09T01:50:14.914Z,4.50
2022-10-09T01:51:21.221Z,3.67
2022-10-09T01:52:47.871Z,6.10
2022-10-09T01:53:53.656Z,4.45
2022-10-09T01:55:30.747Z,4.20
2022-10-09T01:56:39.607Z,3.97
2022-10-09T01:58:04.062Z,4.65
2022-10-09T01:59:15.815Z,3.65
2022-10-09T02:00:20.417Z,3.33
2022-10-09T02:01:24.892Z,5.03
2022-10-09T02:02:27.512Z,4.13
2022-10-09T02:03:31.218Z,4.25
2022-10-09T02:04:34.434Z,4.15
2022-10-09T02:05:38.725Z,4.90
2022-10-09T02:06:42.577Z,3.70
2022-10-09T02:07:45.603Z,4.05
2022-10-09T02:08:53.091Z,4.40
2022-10-09T02:09:56.162Z,4.32
2022-10-09T02:11:00.958Z,4.07
2022-10-09T02:12:07.970Z,4.15
2022-10-09T02:13:10.066Z,3.80
2022-10-09T02:14:12.270Z,3.92
2022-10-09T02:15:14.150Z,4.05
2022-10-09T02:16:27.293Z,4.43
2022-10-09T02:17:33.898Z,4.13
2022-10-09T02:18:41.135Z,4.22
2022-10-09T02:19:52.959Z,4.38
2022-10-09T02:20:59.788Z,4.63
2022-10-09T02:22:12.428Z,4.15
2022-10-09T02:23:16.381Z,4.20
2022-10-09T02:24:21.708Z,3.80
2022-10-09T02:25:25.724Z,4.30
2022-10-09T02:26:27.762Z,4.90
2022-10-09T02:27:30.195Z,4.07
2022-10-09T02:28:32.862Z,4.75
2022-10-09T02:29:35.178Z,3.95
2022-10-09T02:30:49.767Z,4.30
2022-10-09T02:32:03.520Z,4.15
2022-10-09T02:33:06.014Z,4.00
2022-10-09T02:34:10.458Z,3.83
2022-10-09T02:35:12.495Z,4.65
2022-10-09T02:36:15.028Z,4.35
2022-10-09T02:37:17.116Z,4.43
2022-10-09T02:38:19.476Z,3.85
2022-10-09T02:39:21.201Z,4.20
2022-10-09T02:40:23.128Z,4.80
2022-10-09T02:41:25.251Z,3.90
2022-10-09T02:42:27.065Z,4.05
2022-10-09T02:43:28.910Z,4.60
2022-10-09T02:44:30.490Z,4.50
2022-10-09T02:45:32.010Z,4.15
2022-10-09T02:46:34.073Z,4.32
2022-10-09T02:47:36.396Z,4.40
2022-10-09T02:48:38.180Z,4.35
2022-10-09T02:49:39.701Z,4.20
2022-10-09T02:50:41.206Z,4.25
2022-10-09T02:51:43.135Z,4.40
2022-10-09T02:52:44.834Z,4.65
2022-10-09T02:53:46.899Z,3.85
2022-10-09T02:54:48.433Z,4.55
2022-10-09T02:55:50.250Z,4.50
2022-10-09T02:56:52.333Z,4.05
2022-10-09T02:57:54.053Z,4.35
2022-10-09T02:58:55.832Z,4.10
2022-10-09T02:59:57.852Z,3.90
2022-10-09T03:00:59.812Z,4.82
2022-10-09T03:02:01.828Z,4.90
2022-10-09T03:03:03.503Z,5.65
2022-10-09T03:04:05.720Z,4.55
2022-10-09T03:05:07.713Z,4.13
2022-10-09T03:06:14.351Z,4.43
2022-10-09T03:07:15.934Z,5.32
2022-10-09T03:08:17.494Z,4.65
2022-10-09T03:09:19.143Z,4.63
2022-10-09T03:10:21.225Z,5.18
2022-10-09T03:11:25.162Z,5.18
2022-10-09T03:12:26.854Z,5.15
2022-10-09T03:13:30.058Z,6.03
2022-10-09T03:14:31.924Z,5.55
2022-10-09T03:15:35.005Z,5.95
2022-10-09T03:16:36.698Z,6.20
2022-10-09T03:17:38.968Z,4.88
2022-10-09T03:18:41.591Z,4.88
2022-10-09T03:19:43.580Z,5.55
2022-10-09T03:20:45.445Z,5.97
2022-10-09T03:21:47.050Z,6.55
2022-10-09T03:22:48.781Z,5.85
2022-10-09T03:23:53.627Z,5.55
2022-10-09T03:24:55.266Z,5.63
2022-10-09T03:25:58.585Z,5.38
2022-10-09T03:27:00.136Z,5.85
2022-10-09T03:28:02.209Z,4.97
2022-10-09T03:29:04.601Z,5.25
2022-10-09T03:30:07.500Z,5.85
2022-10-09T03:31:15.529Z,5.78
2022-10-09T03:32:24.535Z,5.10
2022-10-09T03:33:26.178Z,5.70
2022-10-09T03:34:28.435Z,6.05
2022-10-09T03:35:30.972Z,5.47
2022-10-09T03:36:32.494Z,5.93
2022-10-09T03:37:34.239Z,5.30
2022-10-09T03:38:36.141Z,5.75
2022-10-09T03:39:37.892Z,5.40
2022-10-09T03:40:39.610Z,4.90
2022-10-09T03:41:41.529Z,5.10
2022-10-09T03:42:43.164Z,4.97
2022-10-09T03:43:44.937Z,4.60
2022-10-09T03:44:46.529Z,6.18
2022-10-09T03:45:48.027Z,6.47
2022-10-09T03:46:50.030Z,5.35
2022-10-09T03:47:52.574Z,6.32
2022-10-09T03:48:54.113Z,5.35
2022-10-09T03:49:55.642Z,4.85
2022-10-09T03:50:57.226Z,5.45
2022-10-09T03:51:58.896Z,5.05
2022-10-09T03:53:00.597Z,4.90
2022-10-09T03:54:02.465Z,5.32
2022-10-09T03:55:05.001Z,4.95
2022-10-09T03:56:07.564Z,4.47
2022-10-09T03:57:10.444Z,4.70
2022-10-09T03:58:12.010Z,5.20
2022-10-09T03:59:14.000Z,4.78
2022-10-09T04:00:15.790Z,5.07
2022-10-09T04:01:17.678Z,5.57
2022-10-09T04:02:19.398Z,5.00
2022-10-09T04:03:22.979Z,5.10
2022-10-09T04:04:24.614Z,4.80
2022-10-09T04:05:26.540Z,5.35
2022-10-09T04:06:28.441Z,5.10
2022-10-09T04:07:30.868Z,5.65
2022-10-09T04:08:35.282Z,5.25
2022-10-09T04:09:37.294Z,4.75
2022-10-09T04:10:38.994Z,4.20
2022-10-09T04:11:40.751Z,5.03
2022-10-09T04:12:42.481Z,5.70
2022-10-09T04:13:44.041Z,5.03
2022-10-09T04:14:45.665Z,4.10
2022-10-09T04:15:52.205Z,5.18
2022-10-09T04:16:54.103Z,5.43
2022-10-09T04:17:55.719Z,4.50
2022-10-09T04:18:57.562Z,5.93
2022-10-09T04:19:59.065Z,5.40
2022-10-09T04:21:01.867Z,5.65
2022-10-09T04:22:03.801Z,5.45
2022-10-09T04:23:07.256Z,6.28
2022-10-09T04:24:09.730Z,5.43
2022-10-09T04:25:11.646Z,5.35
2022-10-09T04:26:13.819Z,5.47
2022-10-09T04:27:15.849Z,6.35
2022-10-09T04:28:17.356Z,6.28
2022-10-09T04:29:19.246Z,5.75
2022-10-09T04:30:20.889Z,6.30
2022-10-09T04:31:23.968Z,5.95
2022-10-09T04:32:25.743Z,6.00
2022-10-09T04:33:28.084Z,6.30
2022-10-09T04:34:29.738Z,6.63
2022-10-09T04:35:32.720Z,5.30
2022-10-09T04:36:35.289Z,5.85
2022-10-09T04:37:37.050Z,6.07
2022-10-09T04:38:39.615Z,5.25
2022-10-09T04:39:41.475Z,5.13
2022-10-09T04:40:43.501Z,6.28
2022-10-09T04:41:45.111Z,5.45
2022-10-09T04:42:47.135Z,5.75
2022-10-09T04:43:49.021Z,5.63
2022-10-09T04:44:51.019Z,6.45
2022-10-09T04:45:52.998Z,6.32
2022-10-09T04:46:54.662Z,6.85
2022-10-09T04:47:56.143Z,6.85
2022-10-09T04:48:57.770Z,6.80
2022-10-09T04:49:59.563Z,6.00
2022-10-09T04:51:04.655Z,6.18
2022-10-09T04:52:06.564Z,6.95
2022-10-09T04:53:09.564Z,5.55
2022-10-09T04:54:12.120Z,7.00
2022-10-09T04:55:14.076Z,6.43
2022-10-09T04:56:18.398Z,5.65
2022-10-09T04:57:19.965Z,7.07
2022-10-09T04:58:21.736Z,9.18
2022-10-09T04:59:24.603Z,7.70
2022-10-09T05:00:26.295Z,7.03
2022-10-09T05:01:28.657Z,7.88
2022-10-09T05:02:31.281Z,6.60
2022-10-09T05:03:32.816Z,7.00
2022-10-09T05:04:34.734Z,6.28
2022-10-09T05:05:36.700Z,6.32
2022-10-09T05:06:38.405Z,6.75
2022-10-09T05:07:40.274Z,7.35
2022-10-09T05:08:42.557Z,7.88
2022-10-09T05:09:44.389Z,6.93
2022-10-09T05:10:48.599Z,7.72
2022-10-09T05:11:50.225Z,7.13
2022-10-09T05:12:51.910Z,7.47
2022-10-09T05:13:55.715Z,7.18
2022-10-09T05:14:57.425Z,6.40
2022-10-09T05:16:03.607Z,6.25
2022-10-09T05:17:23.208Z,5.80
2022-10-09T05:18:25.088Z,5.95
2022-10-09T05:19:27.247Z,5.97
2022-10-09T05:20:29.945Z,5.93
2022-10-09T05:21:37.225Z,5.70
2022-10-09T05:22:38.836Z,5.75
2022-10-09T05:23:40.591Z,4.70
2022-10-09T05:24:44.980Z,6.05
2022-10-09T05:26:01.494Z,6.13
2022-10-09T05:27:03.097Z,5.22
2022-10-09T05:28:06.403Z,5.20
2022-10-09T05:29:07.990Z,5.75
2022-10-09T05:30:10.319Z,6.05
2022-10-09T05:31:28.713Z,5.93
2022-10-09T05:32:30.521Z,5.68
2022-10-09T05:33:32.910Z,5.18
2022-10-09T05:34:35.577Z,5.72
2022-10-09T05:35:38.582Z,6.05
2022-10-09T05:36:40.257Z,5.72
2022-10-09T05:37:45.188Z,6.05
2022-10-09T05:38:47.355Z,6.15
2022-10-09T05:39:49.019Z,5.95
2022-10-09T05:41:02.100Z,5.47
2022-10-09T05:42:04.323Z,6.20
2022-10-09T05:43:05.972Z,6.28
2022-10-09T05:44:08.863Z,5.47
2022-10-09T05:45:11.250Z,5.90
2022-10-09T05:46:16.010Z,7.22
2022-10-09T05:47:19.804Z,6.35
2022-10-09T05:48:23.025Z,6.93
2022-10-09T05:49:25.126Z,6.22
2022-10-09T05:50:27.044Z,7.05
2022-10-09T05:51:34.311Z,6.00
2022-10-09T05:52:36.313Z,6.35
2022-10-09T05:53:38.972Z,5.95
2022-10-09T05:54:42.019Z,5.63
2022-10-09T05:55:43.843Z,6.15
2022-10-09T05:56:46.219Z,6.25
2022-10-09T05:57:47.939Z,6.05
2022-10-09T05:59:01.273Z,6.20
2022-10-09T06:00:03.796Z,6.07
2022-10-09T06:01:05.876Z,6.18
2022-10-09T06:02:09.232Z,5.18
2022-10-09T06:03:11.565Z,7.00
2022-10-09T06:04:16.869Z,6.50
2022-10-09T06:05:20.956Z,5.78
2022-10-09T06:06:24.689Z,6.13
2022-10-09T06:07:26.641Z,6.38
2022-10-09T06:08:28.720Z,7.05
2022-10-09T06:09:30.313Z,6.47
2022-10-09T06:10:32.693Z,6.28
2022-10-09T06:11:36.838Z,7.28
2022-10-09T06:12:39.993Z,7.45
2022-10-09T06:13:42.345Z,7.15
2022-10-09T06:14:45.019Z,7.18
2022-10-09T06:15:54.988Z,6.50
2022-10-09T06:16:59.106Z,6.45
2022-10-09T06:18:00.819Z,7.00
2022-10-09T06:19:04.003Z,6.68
2022-10-09T06:20:06.326Z,7.90
2022-10-09T06:21:08.940Z,8.27
2022-10-09T06:22:10.794Z,6.72
2022-10-09T06:23:12.675Z,7.00
2022-10-09T06:24:25.587Z,6.95
2022-10-09T06:25:30.374Z,8.02
2022-10-09T06:26:32.949Z,8.38
2022-10-09T06:27:34.543Z,7.97
2022-10-09T06:28:36.632Z,9.48
2022-10-09T06:29:39.096Z,10.77
2022-10-09T06:30:40.814Z,10.18
2022-10-09T06:31:42.616Z,10.05
2022-10-09T06:32:44.671Z,9.68
2022-10-09T06:33:48.022Z,9.65
2022-10-09T06:34:49.584Z,8.85
2022-10-09T06:35:51.812Z,9.60
2022-10-09T06:36:53.427Z,9.75
2022-10-09T06:37:55.264Z,10.60
2022-10-09T06:38:59.579Z,11.48
2022-10-09T06:40:01.129Z,10.50
2022-10-09T06:41:08.575Z,9.73
2022-10-09T06:42:10.142Z,10.25
2022-10-09T06:43:11.828Z,10.77
2022-10-09T06:44:16.812Z,10.35
2022-10-09T06:45:19.493Z,10.90
2022-10-09T06:46:23.690Z,10.25
2022-10-09T06:47:26.381Z,10.23
2022-10-09T06:48:32.409Z,8.90
2022-10-09T06:49:34.082Z,6.78
2022-10-09T06:50:37.315Z,7.00
2022-10-09T06:51:39.021Z,6.55
2022-10-09T06:52:41.415Z,5.40
2022-10-09T06:53:54.161Z,5.47
2022-10-09T06:54:55.720Z,6.03
2022-10-09T06:55:59.291Z,5.65
2022-10-09T06:57:01.171Z,5.00
2022-10-09T06:58:03.150Z,5.18
2022-10-09T06:59:07.752Z,5.25
2022-10-09T07:00:09.969Z,5.22
2022-10-09T07:01:16.721Z,5.97
2022-10-09T07:02:18.707Z,5.60
2022-10-09T07:03:20.624Z,5.97
2022-10-09T07:04:22.491Z,6.30
2022-10-09T07:05:25.873Z,5.90
2022-10-09T07:06:30.340Z,5.17
2022-10-09T07:07:32.018Z,5.53
2022-10-09T07:08:33.946Z,4.97
2022-10-09T07:09:35.789Z,5.17
2022-10-09T07:10:37.417Z,5.17
2022-10-09T07:11:43.232Z,5.03
2022-10-09T07:12:44.966Z,4.60
2022-10-09T07:13:47.297Z,4.70
2022-10-09T07:14:49.572Z,4.77
2022-10-09T07:15:51.277Z,4.83
2022-10-09T07:16:54.358Z,4.63
2022-10-09T07:17:56.422Z,5.97
2022-10-09T07:19:01.383Z,4.33
2022-10-09T07:20:03.497Z,5.33
2022-10-09T07:21:07.844Z,5.00
2022-10-09T07:22:11.502Z,6.03
2022-10-09T07:23:13.072Z,5.33
2022-10-09T07:24:15.401Z,4.87
2022-10-09T07:25:18.735Z,4.63
2022-10-09T07:26:23.789Z,4.90
2022-10-09T07:27:25.618Z,4.47
2022-10-09T07:28:29.977Z,4.37
2022-10-09T07:29:31.782Z,5.53
2022-10-09T07:30:38.642Z,4.70
2022-10-09T07:31:40.482Z,5.43
2022-10-09T07:32:43.051Z,5.10
2022-10-09T07:33:48.796Z,4.40
2022-10-09T07:34:51.841Z,4.53
2022-10-09T07:35:55.464Z,4.87
2022-10-09T07:36:57.073Z,4.30
2022-10-09T07:37:58.962Z,4.67
2022-10-09T07:39:00.773Z,4.67
2022-10-09T07:40:02.469Z,4.27
2022-10-09T07:41:09.559Z,4.47
2022-10-09T07:42:11.313Z,4.37
2022-10-09T07:43:13.480Z,4.60
2022-10-09T07:44:16.173Z,4.23
2022-10-09T07:45:18.139Z,4.37
2022-10-09T07:46:22.024Z,7.63
2022-10-09T07:47:23.799Z,10.37
2022-10-09T07:48:26.441Z,9.07
2022-10-09T07:49:28.234Z,5.80
2022-10-09T07:50:29.818Z,5.07
2022-10-09T07:51:32.701Z,4.50
2022-10-09T07:52:34.335Z,5.10
2022-10-09T07:53:36.266Z,3.63
2022-10-09T07:54:38.166Z,3.87
2022-10-09T07:55:46.378Z,4.90
2022-10-09T07:56:48.067Z,4.27
2022-10-09T07:57:50.804Z,3.77
2022-10-09T07:58:55.056Z,3.80
2022-10-09T08:00:01.270Z,4.50
2022-10-09T08:01:07.161Z,3.70
2022-10-09T08:02:09.910Z,3.37
2022-10-09T08:03:11.569Z,3.40
2022-10-09T08:04:19.769Z,3.00
2022-10-09T08:05:21.578Z,3.30
2022-10-09T08:06:23.578Z,3.30
2022-10-09T08:07:25.325Z,3.20
2022-10-09T08:08:27.003Z,3.80
2022-10-09T08:09:28.689Z,3.87
2022-10-09T08:10:31.764Z,3.80
2022-10-09T08:11:34.231Z,4.27
2022-10-09T08:12:35.912Z,4.27
2022-10-09T08:13:38.677Z,4.83
2022-10-09T08:14:40.644Z,4.33
2022-10-09T08:15:45.454Z,4.20
2022-10-09T08:16:48.060Z,4.37
2022-10-09T08:17:52.440Z,4.17
2022-10-09T08:18:58.938Z,4.10
2022-10-09T08:20:00.982Z,4.67
2022-10-09T08:21:09.214Z,4.03
2022-10-09T08:22:12.277Z,3.80
2022-10-09T08:23:14.008Z,4.50
2022-10-09T08:24:15.876Z,3.70
2022-10-09T08:25:17.877Z,3.90
2022-10-09T08:26:22.834Z,3.30
2022-10-09T08:27:24.891Z,3.73
2022-10-09T08:28:27.395Z,3.73
2022-10-09T08:29:29.084Z,3.17
2022-10-09T08:30:30.913Z,3.37
2022-10-09T08:31:32.965Z,3.20
2022-10-09T08:32:34.648Z,2.93
2022-10-09T08:33:36.454Z,3.43
2022-10-09T08:34:38.293Z,2.87
2022-10-09T08:35:40.254Z,3.30
2022-10-09T08:36:41.918Z,2.90
2022-10-09T08:37:43.788Z,2.97
2022-10-09T08:38:47.543Z,2.70
2022-10-09T08:39:49.718Z,2.30
2022-10-09T08:40:58.427Z,2.60
2022-10-09T08:42:03.952Z,2.30
2022-10-09T08:43:08.004Z,2.47
2022-10-09T08:44:09.681Z,3.03
2022-10-09T08:45:17.102Z,1.97
2022-10-09T08:46:40.549Z,2.37
2022-10-09T08:47:58.482Z,2.53
2022-10-09T08:49:03.304Z,2.63
2022-10-09T08:50:16.938Z,2.27
2022-10-09T08:51:31.069Z,2.20
2022-10-09T08:53:02.822Z,2.23
2022-10-09T08:54:14.946Z,2.10
2022-10-09T08:55:44.487Z,2.30
2022-10-09T08:56:50.105Z,2.50
2022-10-09T08:57:55.150Z,2.10
2022-10-09T08:58:57.617Z,2.60
2022-10-09T08:59:59.401Z,2.00
2022-10-09T09:01:15.721Z,2.40
2022-10-09T09:02:25.688Z,1.90
2022-10-09T09:03:41.175Z,2.10
2022-10-09T09:05:21.960Z,2.27
2022-10-09T09:06:32.254Z,1.93
2022-10-09T09:07:48.285Z,2.17
2022-10-09T09:09:24.738Z,1.90
2022-10-09T09:10:41.583Z,1.90
2022-10-09T09:12:11.717Z,2.43
2022-10-09T09:14:09.132Z,1.83
2022-10-09T09:15:29.267Z,1.57
2022-10-09T09:16:50.663Z,2.70
2022-10-09T09:18:20.604Z,1.87
2022-10-09T09:19:34.127Z,2.50
2022-10-09T09:20:59.536Z,4.60
2022-10-09T09:22:01.461Z,2.03
2022-10-09T09:23:03.622Z,2.27
2022-10-09T09:24:13.984Z,1.77
2022-10-09T09:25:33.623Z,1.80
2022-10-09T09:26:35.750Z,1.77
2022-10-09T09:27:38.877Z,1.37
2022-10-09T09:28:45.816Z,1.63
2022-10-09T09:29:57.825Z,1.53
2022-10-09T09:31:22.922Z,2.00
2022-10-09T09:32:30.512Z,1.90
2022-10-09T09:33:44.952Z,2.20
2022-10-09T09:34:47.652Z,1.80
2022-10-09T09:36:07.633Z,2.03
2022-10-09T09:37:12.380Z,2.10
2022-10-09T09:38:16.713Z,1.67
2022-10-09T09:40:15.014Z,1.48
2022-10-09T09:40:48.486Z,1.40
2022-10-09T09:41:50.201Z,1.30
2022-10-09T09:42:56.727Z,1.73
2022-10-09T09:43:58.873Z,1.27
2022-10-09T09:45:03.164Z,1.63
2022-10-09T09:46:16.437Z,2.07
2022-10-09T09:47:26.858Z,1.50
2022-10-09T09:48:43.572Z,1.45
2022-10-09T09:50:00.460Z,1.27
2022-10-09T09:51:27.544Z,1.73
2022-10-09T09:52:32.331Z,1.50
2022-10-09T09:53:42.975Z,1.30
2022-10-09T09:54:49.666Z,1.50
2022-10-09T09:55:53.273Z,1.80
2022-10-09T09:57:12.919Z,1.80
2022-10-09T09:58:17.990Z,1.20
2022-10-09T09:59:40.243Z,1.20
2022-10-09T10:00:41.909Z,1.50
2022-10-09T10:01:44.250Z,1.40
2022-10-09T10:02:45.998Z,1.27
2022-10-09T10:03:50.953Z,1.50
2022-10-09T10:05:01.274Z,1.27
2022-10-09T10:06:03.832Z,1.33
2022-10-09T10:07:06.389Z,1.70
2022-10-09T10:08:34.970Z,1.67
2022-10-09T10:09:36.684Z,1.53
2022-10-09T10:10:45.718Z,2.17
2022-10-09T10:11:53.989Z,1.37
2022-10-09T10:12:58.507Z,1.50
2022-10-09T10:14:07.646Z,1.50
2022-10-09T10:15:23.352Z,1.70
2022-10-09T10:16:28.156Z,1.30
2022-10-09T10:17:34.460Z,1.50
2022-10-09T10:18:43.300Z,1.70
2022-10-09T10:19:50.668Z,1.47
2022-10-09T10:21:01.912Z,1.50
2022-10-09T10:22:05.657Z,2.03
2022-10-09T10:23:22.172Z,1.40
2022-10-09T10:24:30.761Z,1.47
2022-10-09T10:25:35.548Z,1.60
2022-10-09T10:26:47.053Z,1.33
2022-10-09T10:27:52.896Z,1.30
2022-10-09T10:29:16.004Z,1.67
2022-10-09T10:30:21.025Z,1.60
2022-10-09T10:31:37.658Z,1.30
2022-10-09T10:32:51.275Z,1.40
2022-10-09T10:33:57.538Z,1.83
2022-10-09T10:35:18.933Z,2.10
2022-10-09T10:36:21.068Z,1.80
2022-10-09T10:37:39.123Z,1.03
2022-10-09T10:38:57.432Z,1.63
2022-10-09T10:40:17.898Z,1.30
2022-10-09T10:41:28.864Z,1.00
2022-10-09T10:43:06.388Z,1.40
2022-10-09T10:44:41.517Z,1.17
2022-10-09T10:45:45.636Z,1.77
2022-10-09T10:46:56.428Z,1.20
2022-10-09T10:47:59.936Z,1.67
2022-10-09T10:49:02.045Z,2.77
2022-10-09T10:50:03.921Z,1.57
2022-10-09T10:51:24.120Z,1.90
2022-10-09T10:52:37.285Z,2.07
2022-10-09T10:54:03.261Z,1.87
2022-10-09T10:55:42.265Z,1.37
2022-10-09T10:57:02.371Z,1.40
2022-10-09T10:58:13.854Z,1.43
2022-10-09T10:59:33.377Z,1.20
2022-10-09T11:00:41.502Z,1.37
2022-10-09T11:02:21.930Z,1.57
2022-10-09T11:03:39.461Z,1.90
2022-10-09T11:04:50.370Z,1.50
2022-10-09T11:06:17.645Z,1.27
2022-10-09T11:07:47.579Z,1.40
2022-10-09T11:09:14.499Z,1.57
2022-10-09T11:10:35.825Z,1.63
2022-10-09T11:11:50.245Z,1.20
2022-10-09T11:13:06.590Z,1.80
2022-10-09T11:14:20.150Z,1.63
2022-10-09T11:15:39.165Z,1.37
2022-10-09T11:16:53.014Z,1.50
2022-10-09T11:18:29.439Z,1.93
2022-10-09T11:20:09.445Z,1.50
2022-10-09T11:21:30.073Z,1.60
2022-10-09T11:22:36.113Z,1.53
2022-10-09T11:24:02.809Z,1.90
2022-10-09T11:25:09.339Z,1.60
2022-10-09T11:26:41.432Z,1.40
2022-10-09T11:28:03.121Z,1.97
2022-10-09T11:29:20.600Z,1.77
2022-10-09T11:30:22.834Z,1.30
2022-10-09T11:31:49.500Z,1.60
2022-10-09T11:33:16.611Z,1.60
2022-10-09T11:34:25.060Z,2.00
2022-10-09T11:35:38.285Z,1.53
2022-10-09T11:36:43.493Z,1.70
2022-10-09T11:38:00.077Z,1.70
2022-10-09T11:39:06.276Z,1.83
2022-10-09T11:40:32.285Z,1.60
2022-10-09T11:41:36.436Z,1.67
2022-10-09T11:42:38.133Z,1.87
2022-10-09T11:43:51.810Z,1.60
2022-10-09T11:45:21.303Z,1.80
2022-10-09T11:46:31.663Z,1.67
2022-10-09T11:47:42.456Z,1.90
2022-10-09T11:49:08.476Z,1.70
2022-10-09T11:50:19.015Z,1.57
2022-10-09T11:52:02.214Z,1.83
2022-10-09T11:53:13.187Z,1.77
2022-10-09T11:54:20.114Z,2.03
2022-10-09T11:55:25.669Z,2.07
2022-10-09T11:56:29.944Z,1.90
2022-10-09T11:57:33.527Z,2.07
2022-10-09T11:58:36.056Z,1.90
2022-10-09T11:59:42.899Z,2.13
2022-10-09T12:00:46.579Z,1.73
2022-10-09T12:01:48.290Z,2.07
2022-10-09T12:03:01.890Z,1.83
2022-10-09T12:06:07.578Z,1.90
2022-10-09T12:07:09.500Z,2.17
2022-10-09T12:08:24.923Z,2.10
2022-10-09T12:09:31.942Z,2.10
2022-10-09T12:10:34.968Z,2.30
2022-10-09T12:11:36.918Z,1.87
2022-10-09T12:12:39.033Z,1.80
2022-10-09T12:13:52.376Z,1.60
2022-10-09T12:14:54.209Z,1.57
2022-10-09T12:15:58.641Z,1.50
2022-10-09T12:17:01.462Z,1.77
2022-10-09T12:18:14.913Z,1.77
2022-10-09T12:19:25.472Z,1.93
2022-10-09T12:20:28.298Z,2.17
2022-10-09T12:21:39.947Z,1.60
2022-10-09T12:23:01.408Z,1.60
2022-10-09T12:24:16.731Z,2.20
2022-10-09T12:25:40.541Z,1.40
2022-10-09T12:26:43.133Z,1.70
2022-10-09T12:27:45.530Z,1.47
2022-10-09T12:28:52.164Z,1.50
2022-10-09T12:29:58.936Z,2.13
2022-10-09T12:31:03.897Z,1.87
2022-10-09T12:32:13.149Z,1.83
2022-10-09T12:33:14.995Z,1.90
2022-10-09T12:34:25.896Z,2.00
2022-10-09T12:35:37.317Z,1.70
2022-10-09T12:36:39.376Z,1.80
2022-10-09T12:37:41.149Z,2.00
2022-10-09T12:38:43.276Z,2.07
2022-10-09T12:39:46.352Z,2.30
2022-10-09T12:40:49.490Z,2.20
2022-10-09T12:41:55.356Z,4.77
2022-10-09T12:42:59.166Z,2.93
2022-10-09T12:44:02.487Z,2.23
2022-10-09T12:45:04.657Z,4.10
2022-10-09T12:46:06.313Z,4.90
2022-10-09T12:47:15.524Z,3.00
2022-10-09T12:48:20.467Z,1.47
2022-10-09T12:49:25.712Z,1.60
2022-10-09T12:50:32.455Z,1.30
2022-10-09T12:51:34.202Z,1.60
2022-10-09T12:52:35.801Z,1.73
2022-10-09T12:53:47.591Z,1.63
2022-10-09T12:54:49.323Z,1.67
2022-10-09T12:55:59.377Z,1.93
2022-10-09T12:57:02.176Z,2.10
2022-10-09T12:58:24.599Z,1.80
2022-10-09T12:59:28.677Z,1.60
2022-10-09T13:00:32.497Z,1.63
2022-10-09T13:01:35.263Z,1.50
2022-10-09T13:02:37.325Z,2.20
2022-10-09T13:04:03.575Z,1.97
2022-10-09T13:05:05.361Z,1.47
2022-10-09T13:06:13.663Z,1.50
2022-10-09T13:07:20.953Z,1.20
2022-10-09T13:08:26.904Z,1.47
2022-10-09T13:09:37.901Z,2.20
2022-10-09T13:10:39.742Z,1.43
2022-10-09T13:11:44.873Z,2.80
2022-10-09T13:12:52.729Z,1.90
2022-10-09T13:13:56.116Z,2.00
2022-10-09T13:15:01.427Z,1.93
2022-10-09T13:16:09.634Z,1.57
2022-10-09T13:18:40.639Z,1.37
2022-10-09T13:19:52.026Z,2.23
2022-10-09T13:21:19.299Z,1.30
2022-10-09T13:22:35.069Z,1.53
2022-10-09T13:23:37.910Z,1.43
2022-10-09T13:24:40.061Z,1.50
2022-10-09T13:25:44.384Z,1.40
2022-10-09T13:26:46.242Z,1.60
2022-10-09T13:27:48.935Z,1.33
2022-10-09T13:28:51.226Z,1.27
2022-10-09T13:29:54.168Z,1.73
2022-10-09T13:31:05.906Z,1.30
2022-10-09T13:32:11.808Z,1.47
2022-10-09T13:33:16.258Z,1.43
2022-10-09T13:34:18.906Z,1.30
2022-10-09T13:35:20.985Z,1.27
2022-10-09T13:36:23.059Z,1.60
2022-10-09T13:37:26.341Z,1.33
2022-10-09T13:38:31.353Z,1.10
2022-10-09T13:39:35.928Z,1.30
2022-10-09T13:40:39.241Z,1.30
2022-10-09T13:41:42.711Z,1.50
2022-10-09T13:42:52.582Z,1.30
2022-10-09T13:43:54.256Z,1.33
2022-10-09T13:44:56.051Z,2.10
2022-10-09T13:45:58.055Z,1.30
2022-10-09T13:47:00.233Z,1.50
2022-10-09T13:48:02.217Z,1.50
2022-10-09T13:49:04.587Z,1.60
2022-10-09T13:50:06.456Z,1.70
2022-10-09T13:51:08.788Z,1.20
2022-10-09T13:52:10.602Z,1.30
2022-10-09T13:53:13.714Z,1.60
2022-10-09T13:54:16.536Z,1.30
2022-10-09T13:55:18.159Z,1.10
2022-10-09T13:56:19.752Z,1.93
2022-10-09T13:57:22.736Z,2.07
2022-10-09T13:58:24.647Z,1.87
2022-10-09T13:59:26.360Z,3.00
2022-10-09T14:00:28.201Z,5.03
2022-10-09T14:01:30.259Z,2.90
2022-10-09T14:02:32.149Z,7.43
2022-10-09T14:03:33.965Z,2.83
2022-10-09T14:04:35.546Z,2.20
2022-10-09T14:05:39.853Z,1.83
2022-10-09T14:06:41.446Z,2.77
2022-10-09T14:07:44.848Z,1.90
2022-10-09T14:08:47.037Z,4.40
2022-10-09T14:09:49.214Z,1.60
2022-10-09T14:10:50.851Z,2.00
2022-10-09T14:11:52.650Z,1.70
2022-10-09T14:12:54.695Z,1.63
2022-10-09T14:13:58.730Z,2.03
2022-10-09T14:15:00.240Z,2.07
2022-10-09T14:16:08.702Z,1.80
2022-10-09T14:17:10.546Z,1.43
2022-10-09T14:18:12.126Z,2.10
2022-10-09T14:19:14.375Z,1.63
2022-10-09T14:20:16.321Z,1.50
2022-10-09T14:21:18.185Z,1.43
2022-10-09T14:22:20.282Z,1.77
2022-10-09T14:23:21.825Z,1.73
2022-10-09T14:24:24.884Z,1.40
2022-10-09T14:25:26.734Z,1.63
2022-10-09T14:26:29.456Z,1.23
2022-10-09T14:27:31.096Z,1.27
2022-10-09T14:28:35.302Z,1.00
2022-10-09T14:29:38.318Z,1.50
2022-10-09T14:30:41.521Z,1.17
2022-10-09T14:31:43.808Z,1.60
2022-10-09T14:32:47.242Z,1.50
2022-10-09T14:33:49.562Z,1.50
2022-10-09T14:34:51.369Z,1.97
2022-10-09T14:35:53.097Z,2.00
2022-10-09T14:36:54.713Z,1.70
2022-10-09T14:37:56.349Z,1.60
2022-10-09T14:39:00.972Z,1.63
2022-10-09T14:40:03.465Z,1.33
2022-10-09T14:41:06.161Z,1.47
2022-10-09T14:42:08.253Z,1.37
2022-10-09T14:43:11.565Z,1.00
2022-10-09T14:44:15.664Z,1.40